createdAt,value
2016-04-27T00:00:20.857Z,0
2016-04-27T00:01:20.921Z,0
2016-04-27T00:02:20.940Z,0
2016-04-27T00:03:20.927Z,0
2016-04-27T00:04:20.961Z,0
2016-04-27T00:05:21.042Z,0
2016-04-27T00:06:22.873Z,0
2016-04-27T00:07:21.062Z,0
2016-04-27T00:08:21.129Z,0
2016-04-27T00:09:21.178Z,0
2016-04-27T00:10:21.164Z,0
2016-04-27T00:11:21.198Z,0
2016-04-27T00:12:21.279Z,0
2016-04-27T00:13:21.392Z,0
2016-04-27T00:14:21.316Z,0
2016-04-27T00:15:21.350Z,0
2016-04-27T00:16:20.664Z,0
2016-04-27T00:17:21.433Z,0
2016-04-27T00:18:21.452Z,0
2016-04-27T00:19:21.485Z,0
2016-04-27T00:20:21.614Z,0
2016-04-27T00:21:25.366Z,0
2016-04-27T00:22:26.494Z,0
2016-04-27T00:23:21.622Z,0
2016-04-27T00:24:21.764Z,0
2016-04-27T00:25:21.674Z,0
2016-04-27T00:26:21.707Z,0
2016-04-27T00:27:21.757Z,0
2016-04-27T00:28:21.791Z,0
2016-04-27T00:29:21.810Z,0
2016-04-27T00:30:21.859Z,0
2016-04-27T00:31:21.971Z,0
2016-04-27T00:32:21.927Z,0
2016-04-27T00:33:21.977Z,0
2016-04-27T00:34:22.041Z,0
2016-04-27T00:35:22.091Z,0
2016-04-27T00:36:21.640Z,0
2016-04-27T00:37:24.674Z,0
2016-04-27T00:38:22.193Z,0
2016-04-27T00:39:22.211Z,0
2016-04-27T00:40:22.816Z,0
2016-04-27T00:41:22.316Z,0
2016-04-27T00:42:22.416Z,0
2016-04-27T00:43:22.299Z,0
2016-04-27T00:44:22.582Z,0
2016-04-27T00:45:22.340Z,0
2016-04-27T00:46:22.437Z,0
2016-04-27T00:47:22.454Z,0
2016-04-27T00:48:21.723Z,0
2016-04-27T00:49:33.851Z,0
2016-04-27T00:50:22.526Z,0
2016-04-27T00:51:23.637Z,0
2016-04-27T00:52:22.625Z,0
2016-04-27T00:53:22.673Z,0
2016-04-27T00:54:22.691Z,0
2016-04-27T00:55:22.695Z,0
2016-04-27T00:56:22.776Z,0
2016-04-27T00:57:22.825Z,0
2016-04-27T00:58:22.827Z,0
2016-04-27T00:59:22.862Z,0
2016-04-27T01:00:22.911Z,0
2016-04-27T01:01:22.914Z,0
2016-04-27T01:02:22.964Z,0
2016-04-27T01:03:23.029Z,0
2016-04-27T01:04:22.235Z,0
2016-04-27T01:05:23.049Z,0
2016-04-27T01:06:23.694Z,0
2016-04-27T01:07:23.133Z,0
2016-04-27T01:08:23.167Z,0
2016-04-27T01:09:23.186Z,0
2016-04-27T01:10:23.219Z,0
2016-04-27T01:11:23.315Z,0
2016-04-27T01:12:22.506Z,0
2016-04-27T01:13:22.556Z,0
2016-04-27T01:14:23.387Z,0
2016-04-27T01:15:23.436Z,0
2016-04-27T01:16:23.407Z,0
2016-04-27T01:17:23.457Z,0
2016-04-27T01:18:24.381Z,0
2016-04-27T01:19:23.587Z,0
2016-04-27T01:20:23.575Z,0
2016-04-27T01:21:24.280Z,0
2016-04-27T01:22:23.710Z,0
2016-04-27T01:23:27.621Z,0
2016-04-27T01:24:23.686Z,0
2016-04-27T01:25:23.736Z,0
2016-04-27T01:26:23.848Z,0
2016-04-27T01:27:23.819Z,0
2016-04-27T01:28:23.822Z,0
2016-04-27T01:29:23.856Z,0
2016-04-27T01:30:23.984Z,0
2016-04-27T01:31:23.815Z,0
2016-04-27T01:32:23.974Z,0
2016-04-27T01:33:24.055Z,0
2016-04-27T01:34:24.074Z,0
2016-04-27T01:35:24.091Z,0
2016-04-27T01:36:24.579Z,0
2016-04-27T01:37:24.175Z,0
2016-04-27T01:38:24.193Z,0
2016-04-27T01:39:24.196Z,0
2016-04-27T01:40:24.245Z,0
2016-04-27T01:41:24.342Z,0
2016-04-27T01:42:24.313Z,0
2016-04-27T01:43:24.222Z,0
2016-04-27T01:44:24.459Z,0
2016-04-27T01:45:24.509Z,0
2016-04-27T01:46:24.465Z,0
2016-04-27T01:47:24.467Z,0
2016-04-27T01:48:24.564Z,0
2016-04-27T01:49:24.598Z,0
2016-04-27T01:50:24.586Z,0
2016-04-27T01:51:25.260Z,0
2016-04-27T01:52:24.544Z,0
2016-04-27T01:53:24.704Z,0
2016-04-27T01:54:24.737Z,0
2016-04-27T01:55:24.770Z,0
2016-04-27T01:56:24.087Z,0
2016-04-27T01:57:24.854Z,0
2016-04-27T01:58:24.107Z,0
2016-04-27T01:59:24.891Z,0
2016-04-27T02:00:24.956Z,0
2016-04-27T02:01:24.990Z,0
2016-04-27T02:02:24.993Z,0
2016-04-27T02:03:25.073Z,0
2016-04-27T02:04:25.170Z,0
2016-04-27T02:05:25.095Z,0
2016-04-27T02:06:26.801Z,0
2016-04-27T02:07:25.225Z,0
2016-04-27T02:08:25.228Z,0
2016-04-27T02:09:25.106Z,0
2016-04-27T02:10:25.265Z,0
2016-04-27T02:11:24.595Z,0
2016-04-27T02:12:25.394Z,0
2016-04-27T02:13:25.507Z,0
2016-04-27T02:14:25.400Z,0
2016-04-27T02:15:25.527Z,0
2016-04-27T02:16:25.499Z,0
2016-04-27T02:17:25.502Z,0
2016-04-27T02:18:25.536Z,0
2016-04-27T02:19:25.648Z,0
2016-04-27T02:20:25.494Z,0
2016-04-27T02:21:27.482Z,0
2016-04-27T02:22:26.047Z,0
2016-04-27T02:23:25.752Z,0
2016-04-27T02:24:25.740Z,0
2016-04-27T02:25:25.805Z,0
2016-04-27T02:26:25.855Z,0
2016-04-27T02:27:25.856Z,0
2016-04-27T02:28:25.890Z,0
2016-04-27T02:29:25.941Z,0
2016-04-27T02:30:26.021Z,0
2016-04-27T02:31:25.992Z,0
2016-04-27T02:32:26.073Z,0
2016-04-27T02:33:26.076Z,0
2016-04-27T02:34:26.126Z,0
2016-04-27T02:35:26.113Z,0
2016-04-27T02:36:25.976Z,0
2016-04-27T02:37:28.133Z,0
2016-04-27T02:38:26.247Z,0
2016-04-27T02:39:26.249Z,0
2016-04-27T02:40:26.298Z,0
2016-04-27T02:41:26.348Z,0
2016-04-27T02:42:26.374Z,0
2016-04-27T02:43:27.293Z,0
2016-04-27T02:44:26.509Z,0
2016-04-27T02:45:26.680Z,0
2016-04-27T02:46:26.693Z,0
2016-04-27T02:47:26.747Z,0
2016-04-27T02:48:26.969Z,0
2016-04-27T02:49:26.894Z,0
2016-04-27T02:50:26.881Z,0
2016-04-27T02:51:27.367Z,0
2016-04-27T02:52:27.133Z,0
2016-04-27T02:53:27.080Z,0
2016-04-27T02:54:27.055Z,0
2016-04-27T02:55:27.111Z,0
2016-04-27T02:56:27.071Z,0
2016-04-27T02:57:27.189Z,0
2016-04-27T02:58:27.865Z,0
2016-04-27T02:59:27.277Z,0
2016-04-27T03:00:27.328Z,0
2016-04-27T03:01:27.332Z,0
2016-04-27T03:02:27.352Z,0
2016-04-27T03:03:28.137Z,0
2016-04-27T03:04:26.672Z,0
2016-04-27T03:05:27.456Z,0
2016-04-27T03:06:27.554Z,0
2016-04-27T03:07:28.338Z,0
2016-04-27T03:08:27.591Z,0
2016-04-27T03:09:27.626Z,0
2016-04-27T03:10:27.675Z,0
2016-04-27T03:11:27.678Z,0
2016-04-27T03:12:27.745Z,0
2016-04-27T03:13:27.841Z,0
2016-04-27T03:14:27.781Z,0
2016-04-27T03:15:27.892Z,0
2016-04-27T03:16:27.864Z,0
2016-04-27T03:17:27.898Z,0
2016-04-27T03:18:28.275Z,0
2016-04-27T03:19:27.966Z,0
2016-04-27T03:20:27.969Z,0
2016-04-27T03:21:27.722Z,0
2016-04-27T03:22:28.599Z,0
2016-04-27T03:23:28.133Z,0
2016-04-27T03:24:28.105Z,0
2016-04-27T03:25:28.155Z,0
2016-04-27T03:26:28.188Z,0
2016-04-27T03:27:27.456Z,0
2016-04-27T03:28:29.085Z,0
2016-04-27T03:29:28.321Z,0
2016-04-27T03:30:28.371Z,0
2016-04-27T03:31:28.374Z,0
2016-04-27T03:32:28.407Z,0
2016-04-27T03:33:28.473Z,0
2016-04-27T03:34:28.507Z,0
2016-04-27T03:35:28.493Z,0
2016-04-27T03:36:32.684Z,0
2016-04-27T03:37:29.687Z,0
2016-04-27T03:38:28.657Z,0
2016-04-27T03:39:28.614Z,0
2016-04-27T03:40:28.648Z,0
2016-04-27T03:41:28.790Z,5
2016-04-27T03:42:28.778Z,5
2016-04-27T03:43:29.187Z,5
2016-04-27T03:44:28.798Z,5
2016-04-27T03:45:28.833Z,5
2016-04-27T03:46:28.867Z,5
2016-04-27T03:47:28.870Z,5
2016-04-27T03:48:28.950Z,10
2016-04-27T03:49:29.062Z,10
2016-04-27T03:50:28.221Z,10
2016-04-27T03:51:29.100Z,10
2016-04-27T03:52:29.305Z,10
2016-04-27T03:53:29.120Z,10
2016-04-27T03:54:29.123Z,15
2016-04-27T03:55:29.172Z,15
2016-04-27T03:56:29.222Z,15
2016-04-27T03:57:29.271Z,15
2016-04-27T03:58:29.118Z,15
2016-04-27T03:59:29.308Z,20
2016-04-27T04:00:29.435Z,20
2016-04-27T04:01:29.360Z,20
2016-04-27T04:02:29.394Z,20
2016-04-27T04:03:29.429Z,25
2016-04-27T04:04:29.524Z,25
2016-04-27T04:05:29.497Z,25
2016-04-27T04:06:32.483Z,25
2016-04-27T04:07:29.799Z,30
2016-04-27T04:08:29.614Z,30
2016-04-27T04:09:29.633Z,30
2016-04-27T04:10:29.744Z,30
2016-04-27T04:11:29.795Z,35
2016-04-27T04:12:29.735Z,35
2016-04-27T04:13:29.768Z,35
2016-04-27T04:14:29.865Z,40
2016-04-27T04:15:29.883Z,40
2016-04-27T04:16:29.885Z,40
2016-04-27T04:17:29.921Z,40
2016-04-27T04:18:29.251Z,45
2016-04-27T04:19:29.238Z,45
2016-04-27T04:20:30.007Z,45
2016-04-27T04:21:30.649Z,45
2016-04-27T04:22:30.266Z,45
2016-04-27T04:23:30.111Z,50
2016-04-27T04:24:33.239Z,50
2016-04-27T04:25:30.179Z,50
2016-04-27T04:26:30.277Z,50
2016-04-27T04:27:30.091Z,50
2016-04-27T04:28:30.282Z,50
2016-04-27T04:29:30.410Z,55
2016-04-27T04:30:30.350Z,55
2016-04-27T04:31:30.399Z,55
2016-04-27T04:32:30.480Z,60
2016-04-27T04:33:30.498Z,60
2016-04-27T04:34:30.485Z,60
2016-04-27T04:35:29.784Z,60
2016-04-27T04:36:31.006Z,65
2016-04-27T04:37:30.712Z,65
2016-04-27T04:38:30.637Z,70
2016-04-27T04:39:30.701Z,70
2016-04-27T04:40:30.720Z,70
2016-04-27T04:41:30.723Z,75
2016-04-27T04:42:30.756Z,75
2016-04-27T04:43:30.823Z,75
2016-04-27T04:44:30.918Z,80
2016-04-27T04:45:30.875Z,80
2016-04-27T04:46:31.580Z,80
2016-04-27T04:47:30.926Z,80
2016-04-27T04:48:31.008Z,80
2016-04-27T04:49:30.994Z,80
2016-04-27T04:50:31.044Z,85
2016-04-27T04:51:32.547Z,85
2016-04-27T04:52:31.111Z,80
2016-04-27T04:53:31.131Z,80
2016-04-27T04:54:31.164Z,80
2016-04-27T04:55:31.244Z,80
2016-04-27T04:56:33.450Z,80
2016-04-27T04:57:31.344Z,80
2016-04-27T04:58:31.377Z,85
2016-04-27T04:59:31.349Z,85
2016-04-27T05:00:31.384Z,90
2016-04-27T05:01:31.793Z,90
2016-04-27T05:02:31.483Z,95
2016-04-27T05:03:31.485Z,95
2016-04-27T05:04:31.535Z,95
2016-04-27T05:05:31.585Z,95
2016-04-27T05:06:33.212Z,100
2016-04-27T05:07:31.605Z,100
2016-04-27T05:08:31.654Z,100
2016-04-27T05:09:31.782Z,100
2016-04-27T05:10:31.738Z,100
2016-04-27T05:11:33.257Z,100
2016-04-27T05:12:31.823Z,100
2016-04-27T05:13:31.918Z,105
2016-04-27T05:14:31.890Z,105
2016-04-27T05:15:31.892Z,105
2016-04-27T05:16:32.551Z,105
2016-04-27T05:17:32.038Z,105
2016-04-27T05:18:33.072Z,110
2016-04-27T05:19:32.450Z,110
2016-04-27T05:20:32.156Z,110
2016-04-27T05:21:32.206Z,110
2016-04-27T05:22:32.161Z,110
2016-04-27T05:23:32.445Z,110
2016-04-27T05:24:32.307Z,110
2016-04-27T05:25:33.653Z,115
2016-04-27T05:26:32.344Z,115
2016-04-27T05:27:31.612Z,115
2016-04-27T05:28:32.381Z,115
2016-04-27T05:29:34.289Z,115
2016-04-27T05:30:32.402Z,115
2016-04-27T05:31:32.030Z,115
2016-04-27T05:32:32.485Z,120
2016-04-27T05:33:32.629Z,115
2016-04-27T05:34:32.943Z,115
2016-04-27T05:35:32.696Z,115
2016-04-27T05:36:32.683Z,115
2016-04-27T05:37:33.374Z,115
2016-04-27T05:38:32.720Z,120
2016-04-27T05:39:32.051Z,120
2016-04-27T05:40:33.179Z,120
2016-04-27T05:41:34.337Z,120
2016-04-27T05:42:32.918Z,120
2016-04-27T05:43:32.936Z,120
2016-04-27T05:44:33.048Z,120
2016-04-27T05:45:33.754Z,120
2016-04-27T05:46:33.507Z,120
2016-04-27T05:47:34.401Z,115
2016-04-27T05:48:34.012Z,115
2016-04-27T05:49:34.953Z,120
2016-04-27T05:50:33.142Z,120
2016-04-27T05:51:33.130Z,120
2016-04-27T05:52:33.539Z,120
2016-04-27T05:53:33.229Z,120
2016-04-27T05:54:33.294Z,125
2016-04-27T05:55:33.297Z,125
2016-04-27T05:56:33.409Z,130
2016-04-27T05:57:33.428Z,130
2016-04-27T05:58:33.399Z,125
2016-04-27T05:59:34.245Z,125
2016-04-27T06:00:33.482Z,130
2016-04-27T06:01:33.563Z,130
2016-04-27T06:02:33.628Z,130
2016-04-27T06:03:33.553Z,130
2016-04-27T06:04:34.227Z,130
2016-04-27T06:05:33.652Z,135
2016-04-27T06:06:35.529Z,135
2016-04-27T06:07:33.548Z,135
2016-04-27T06:08:34.004Z,135
2016-04-27T06:09:33.771Z,135
2016-04-27T06:10:34.557Z,135
2016-04-27T06:11:33.902Z,135
2016-04-27T06:12:34.312Z,135
2016-04-27T06:13:36.940Z,135
2016-04-27T06:14:35.942Z,140
2016-04-27T06:15:38.351Z,140
2016-04-27T06:16:36.962Z,140
2016-04-27T06:17:36.559Z,140
2016-04-27T06:18:36.750Z,140
2016-04-27T06:19:39.345Z,140
2016-04-27T06:20:35.677Z,140
2016-04-27T06:21:37.023Z,145
2016-04-27T06:22:35.979Z,145
2016-04-27T06:23:37.264Z,145
2016-04-27T06:24:36.562Z,145
2016-04-27T06:25:36.815Z,145
2016-04-27T06:26:36.458Z,145
2016-04-27T06:27:37.117Z,145
2016-04-27T06:28:37.761Z,150
2016-04-27T06:29:36.029Z,150
2016-04-27T06:30:36.860Z,150
2016-04-27T06:31:36.972Z,155
2016-04-27T06:32:36.599Z,155
2016-04-27T06:33:36.946Z,160
2016-04-27T06:34:37.886Z,160
2016-04-27T06:35:37.670Z,165
2016-04-27T06:36:36.860Z,180
2016-04-27T06:37:37.581Z,190
2016-04-27T06:38:37.194Z,200
2016-04-27T06:39:36.681Z,190
2016-04-27T06:40:37.793Z,180
2016-04-27T06:41:37.468Z,185
2016-04-27T06:42:37.282Z,170
2016-04-27T06:43:37.801Z,180
2016-04-27T06:44:38.038Z,180
2016-04-27T06:45:38.431Z,190
2016-04-27T06:46:36.668Z,210
2016-04-27T06:47:37.437Z,215
2016-04-27T06:48:37.768Z,245
2016-04-27T06:49:37.443Z,270
2016-04-27T06:50:36.226Z,295
2016-04-27T06:51:36.681Z,310
2016-04-27T06:52:37.529Z,300
2016-04-27T06:53:37.703Z,300
2016-04-27T06:54:37.893Z,320
2016-04-27T06:55:37.427Z,290
2016-04-27T06:56:36.430Z,280
2016-04-27T06:57:37.542Z,270
2016-04-27T06:58:37.826Z,285
2016-04-27T06:59:37.985Z,245
2016-04-27T07:00:37.753Z,225
2016-04-27T07:01:38.100Z,245
2016-04-27T07:02:38.914Z,300
2016-04-27T07:03:37.777Z,335
2016-04-27T07:04:38.326Z,315
2016-04-27T07:05:35.907Z,355
2016-04-27T07:06:35.800Z,350
2016-04-27T07:07:38.553Z,370
2016-04-27T07:08:36.572Z,350
2016-04-27T07:09:35.887Z,330
2016-04-27T07:10:35.983Z,335
2016-04-27T07:11:36.658Z,345
2016-04-27T07:12:38.098Z,280
2016-04-27T07:13:36.335Z,255
2016-04-27T07:14:36.087Z,280
2016-04-27T07:15:36.231Z,295
2016-04-27T07:16:36.234Z,300
2016-04-27T07:17:36.190Z,300
2016-04-27T07:18:36.271Z,300
2016-04-27T07:19:36.320Z,320
2016-04-27T07:20:36.323Z,340
2016-04-27T07:21:36.372Z,375
2016-04-27T07:22:37.265Z,405
2016-04-27T07:23:36.517Z,385
2016-04-27T07:24:36.459Z,340
2016-04-27T07:25:36.492Z,355
2016-04-27T07:26:36.900Z,355
2016-04-27T07:27:36.607Z,350
2016-04-27T07:28:36.625Z,330
2016-04-27T07:29:36.877Z,310
2016-04-27T07:30:36.834Z,290
2016-04-27T07:31:36.852Z,275
2016-04-27T07:32:38.917Z,275
2016-04-27T07:33:39.530Z,235
2016-04-27T07:34:36.922Z,225
2016-04-27T07:35:37.691Z,215
2016-04-27T07:36:38.225Z,210
2016-04-27T07:37:38.040Z,210
2016-04-27T07:38:37.480Z,220
2016-04-27T07:39:37.061Z,230
2016-04-27T07:40:37.907Z,235
2016-04-27T07:41:37.129Z,235
2016-04-27T07:42:37.226Z,240
2016-04-27T07:43:37.666Z,255
2016-04-27T07:44:38.543Z,270
2016-04-27T07:45:42.092Z,300
2016-04-27T07:46:39.612Z,350
2016-04-27T07:47:42.240Z,365
2016-04-27T07:48:40.382Z,360
2016-04-27T07:49:40.245Z,370
2016-04-27T07:50:43.762Z,345
2016-04-27T07:51:42.125Z,335
2016-04-27T07:52:42.456Z,330
2016-04-27T07:53:39.958Z,295
2016-04-27T07:54:39.523Z,320
2016-04-27T07:55:37.761Z,335
2016-04-27T07:56:39.700Z,335
2016-04-27T07:57:37.391Z,325
2016-04-27T07:58:38.127Z,320
2016-04-27T07:59:37.755Z,315
2016-04-27T08:00:37.805Z,320
2016-04-27T08:01:39.777Z,345
2016-04-27T08:02:38.014Z,390
2016-04-27T08:03:37.907Z,405
2016-04-27T08:04:38.019Z,420
2016-04-27T08:05:38.068Z,395
2016-04-27T08:06:38.056Z,360
2016-04-27T08:07:38.011Z,375
2016-04-27T08:08:38.358Z,385
2016-04-27T08:09:38.235Z,360
2016-04-27T08:10:40.254Z,335
2016-04-27T08:11:39.804Z,390
2016-04-27T08:12:38.696Z,335
2016-04-27T08:13:38.465Z,345
2016-04-27T08:14:38.624Z,330
2016-04-27T08:15:38.627Z,310
2016-04-27T08:16:38.785Z,290
2016-04-27T08:17:39.007Z,310
2016-04-27T08:18:39.290Z,350
2016-04-27T08:19:40.232Z,375
2016-04-27T08:20:38.765Z,470
2016-04-27T08:21:38.909Z,465
2016-04-27T08:22:39.990Z,435
2016-04-27T08:23:41.961Z,460
2016-04-27T08:24:40.370Z,470
2016-04-27T08:25:39.309Z,460
2016-04-27T08:26:42.047Z,465
2016-04-27T08:27:42.533Z,555
2016-04-27T08:28:40.287Z,520
2016-04-27T08:29:39.336Z,540
2016-04-27T08:30:43.011Z,480
2016-04-27T08:31:48.701Z,465
2016-04-27T08:32:42.653Z,525
2016-04-27T08:33:41.236Z,510
2016-04-27T08:34:42.206Z,465
2016-04-27T08:35:45.177Z,455
2016-04-27T08:36:43.134Z,450
2016-04-27T08:37:39.589Z,405
2016-04-27T08:38:42.889Z,370
2016-04-27T08:39:47.485Z,365
2016-04-27T08:40:42.425Z,350
2016-04-27T08:41:45.147Z,370
2016-04-27T08:42:41.337Z,415
2016-04-27T08:43:40.621Z,475
2016-04-27T08:44:44.123Z,485
2016-04-27T08:45:39.627Z,430
2016-04-27T08:46:41.895Z,460
2016-04-27T08:47:41.490Z,475
2016-04-27T08:48:40.369Z,405
2016-04-27T08:49:41.246Z,460
2016-04-27T08:50:45.843Z,515
2016-04-27T08:51:41.174Z,540
2016-04-27T08:52:40.129Z,575
2016-04-27T08:53:43.414Z,515
2016-04-27T08:54:40.978Z,515
2016-04-27T08:55:40.529Z,555
2016-04-27T08:56:40.172Z,530
2016-04-27T08:57:42.720Z,525
2016-04-27T08:58:40.349Z,570
2016-04-27T08:59:42.180Z,595
2016-04-27T09:00:40.289Z,575
2016-04-27T09:01:40.214Z,620
2016-04-27T09:02:40.216Z,620
2016-04-27T09:03:40.644Z,640
2016-04-27T09:04:42.287Z,545
2016-04-27T09:05:42.289Z,510
2016-04-27T09:06:40.605Z,380
2016-04-27T09:07:40.748Z,390
2016-04-27T09:08:40.938Z,445
2016-04-27T09:09:40.832Z,430
2016-04-27T09:10:40.769Z,495
2016-04-27T09:11:40.553Z,480
2016-04-27T09:12:40.918Z,385
2016-04-27T09:13:40.605Z,405
2016-04-27T09:14:42.454Z,400
2016-04-27T09:15:40.876Z,460
2016-04-27T09:16:42.351Z,510
2016-04-27T09:17:42.400Z,495
2016-04-27T09:18:40.838Z,495
2016-04-27T09:19:40.074Z,490
2016-04-27T09:20:40.905Z,435
2016-04-27T09:21:41.018Z,535
2016-04-27T09:22:41.726Z,565
2016-04-27T09:23:41.070Z,500
2016-04-27T09:24:41.120Z,535
2016-04-27T09:25:41.059Z,500
2016-04-27T09:26:41.767Z,435
2016-04-27T09:27:41.220Z,450
2016-04-27T09:28:41.224Z,485
2016-04-27T09:29:41.258Z,480
2016-04-27T09:30:41.261Z,455
2016-04-27T09:31:42.562Z,420
2016-04-27T09:32:41.328Z,355
2016-04-27T09:33:41.503Z,375
2016-04-27T09:34:41.428Z,330
2016-04-27T09:35:42.886Z,285
2016-04-27T09:36:43.498Z,245
2016-04-27T09:37:44.485Z,240
2016-04-27T09:38:41.735Z,230
2016-04-27T09:39:41.972Z,285
2016-04-27T09:40:41.677Z,280
2016-04-27T09:41:41.759Z,325
2016-04-27T09:42:42.183Z,285
2016-04-27T09:43:41.952Z,310
2016-04-27T09:44:42.252Z,290
2016-04-27T09:45:43.710Z,315
2016-04-27T09:46:46.650Z,305
2016-04-27T09:47:45.887Z,305
2016-04-27T09:48:52.233Z,350
2016-04-27T09:49:46.440Z,340
2016-04-27T09:50:46.021Z,390
2016-04-27T09:51:45.038Z,435
2016-04-27T09:52:46.338Z,435
2016-04-27T09:53:49.122Z,490
2016-04-27T09:54:48.046Z,460
2016-04-27T09:55:47.626Z,505
2016-04-27T09:56:49.224Z,545
2016-04-27T09:57:46.914Z,510
2016-04-27T09:58:47.573Z,495
2016-04-27T09:59:47.467Z,480
2016-04-27T10:00:45.922Z,510
2016-04-27T10:01:45.347Z,635
2016-04-27T10:02:45.553Z,815
2016-04-27T10:03:46.273Z,815
2016-04-27T10:04:44.745Z,1055
2016-04-27T10:05:44.092Z,800
2016-04-27T10:06:44.142Z,1915
2016-04-27T10:07:43.439Z,1030
2016-04-27T10:08:46.271Z,1020
2016-04-27T10:09:44.822Z,2285
2016-04-27T10:10:42.947Z,1225
2016-04-27T10:11:46.763Z,3235
2016-04-27T10:12:46.127Z,2975
2016-04-27T10:13:45.066Z,1955
2016-04-27T10:14:47.569Z,1820
2016-04-27T10:15:45.946Z,2875
2016-04-27T10:16:44.575Z,3290
2016-04-27T10:17:48.718Z,3200
2016-04-27T10:18:46.158Z,3300
2016-04-27T10:19:44.692Z,3245
2016-04-27T10:20:46.898Z,3275
2016-04-27T10:21:44.007Z,1155
2016-04-27T10:22:46.076Z,1360
2016-04-27T10:23:46.361Z,3405
2016-04-27T10:24:47.160Z,1860
2016-04-27T10:25:44.472Z,925
2016-04-27T10:26:45.806Z,985
2016-04-27T10:27:43.697Z,865
2016-04-27T10:28:43.795Z,1035
2016-04-27T10:29:48.675Z,1705
2016-04-27T10:30:45.990Z,640
2016-04-27T10:31:47.508Z,765
2016-04-27T10:32:46.917Z,515
2016-04-27T10:33:47.217Z,810
2016-04-27T10:34:45.923Z,465
2016-04-27T10:35:44.064Z,3025
2016-04-27T10:36:47.725Z,480
2016-04-27T10:37:47.525Z,2065
2016-04-27T10:38:47.120Z,3025
2016-04-27T10:39:49.170Z,3150
2016-04-27T10:40:47.641Z,800
2016-04-27T10:41:46.458Z,2655
2016-04-27T10:42:49.881Z,3000
2016-04-27T10:43:45.509Z,3075
2016-04-27T10:44:44.588Z,2980
2016-04-27T10:45:46.530Z,665
2016-04-27T10:46:46.705Z,3155
2016-04-27T10:47:45.564Z,3160
2016-04-27T10:48:46.116Z,3045
2016-04-27T10:49:46.244Z,2920
2016-04-27T10:50:47.700Z,2810
2016-04-27T10:51:50.905Z,1125
2016-04-27T10:52:49.205Z,2775
2016-04-27T10:53:48.099Z,2570
2016-04-27T10:54:45.583Z,1080
2016-04-27T10:55:45.008Z,2910
2016-04-27T10:56:47.793Z,1410
2016-04-27T10:57:45.856Z,1015
2016-04-27T10:58:46.534Z,775
2016-04-27T10:59:48.615Z,1000
2016-04-27T11:00:51.496Z,1145
2016-04-27T11:01:48.858Z,3325
2016-04-27T11:02:48.283Z,1745
2016-04-27T11:03:48.567Z,3485
2016-04-27T11:04:50.242Z,1480
2016-04-27T11:05:46.666Z,845
2016-04-27T11:06:46.606Z,2130
2016-04-27T11:07:47.594Z,1860
2016-04-27T11:08:45.969Z,2475
2016-04-27T11:09:49.740Z,1085
2016-04-27T11:10:45.865Z,860
2016-04-27T11:11:44.836Z,800
2016-04-27T11:12:45.682Z,3125
2016-04-27T11:13:45.826Z,890
2016-04-27T11:14:45.922Z,930
2016-04-27T11:15:45.846Z,3110
2016-04-27T11:16:46.365Z,3310
2016-04-27T11:17:45.867Z,3335
2016-04-27T11:18:46.449Z,4035
2016-04-27T11:19:46.029Z,1255
2016-04-27T11:20:46.157Z,1410
2016-04-27T11:21:48.490Z,1145
2016-04-27T11:22:46.428Z,985
2016-04-27T11:23:48.698Z,665
2016-04-27T11:24:46.277Z,855
2016-04-27T11:25:46.248Z,1030
2016-04-27T11:26:46.329Z,815
2016-04-27T11:27:46.331Z,580
2016-04-27T11:28:46.272Z,1170
2016-04-27T11:29:46.384Z,435
2016-04-27T11:30:46.731Z,515
2016-04-27T15:25:56.668Z,290
2016-04-27T15:27:49.987Z,290
2016-04-27T15:28:50.005Z,1470
2016-04-27T15:29:50.054Z,1520
2016-04-27T15:30:50.119Z,1550
2016-04-27T15:31:50.153Z,1550
2016-04-27T15:32:51.656Z,1480
2016-04-27T15:33:50.205Z,455
2016-04-27T15:34:50.380Z,545
2016-04-27T15:35:50.336Z,1200
2016-04-27T15:36:50.354Z,1405
2016-04-27T15:37:50.403Z,1400
2016-04-27T15:38:55.188Z,1425
2016-04-27T15:39:52.065Z,1425
2016-04-27T15:40:50.536Z,1445
2016-04-27T15:41:50.555Z,1340
2016-04-27T15:42:50.683Z,1375
2016-04-27T15:43:50.685Z,1340
2016-04-27T15:44:50.704Z,1265
2016-04-27T15:45:51.597Z,335
2016-04-27T15:46:50.818Z,335
2016-04-27T15:47:52.071Z,300
2016-04-27T15:48:50.871Z,455
2016-04-27T15:49:50.952Z,405
2016-04-27T15:50:51.096Z,400
2016-04-27T15:51:51.051Z,370
2016-04-27T15:52:50.304Z,855
2016-04-27T15:53:51.165Z,340
2016-04-27T15:54:52.465Z,410
2016-04-27T15:55:51.233Z,1190
2016-04-27T15:56:51.252Z,1305
2016-04-27T15:57:52.083Z,1250
2016-04-27T15:58:52.773Z,1165
2016-04-27T15:59:50.603Z,505
2016-04-27T16:00:51.481Z,1145
2016-04-27T16:01:51.515Z,1120
2016-04-27T16:02:51.549Z,320
2016-04-27T16:03:51.568Z,525
2016-04-27T16:04:51.586Z,1045
2016-04-27T16:05:52.448Z,1055
2016-04-27T16:06:51.716Z,1065
2016-04-27T16:07:51.734Z,1005
2016-04-27T16:08:52.425Z,1035
2016-04-27T16:09:54.364Z,1050
2016-04-27T16:10:52.414Z,1045
2016-04-27T16:11:53.073Z,1000
2016-04-27T16:12:52.951Z,250
2016-04-27T16:13:52.000Z,925
2016-04-27T16:14:52.050Z,725
2016-04-27T16:15:52.099Z,1075
2016-04-27T16:16:52.196Z,1015
2016-04-27T16:17:51.402Z,985
2016-04-27T16:18:52.217Z,945
2016-04-27T16:19:52.376Z,275
2016-04-27T16:20:52.363Z,735
2016-04-27T16:21:52.960Z,525
2016-04-27T16:22:53.181Z,885
2016-04-27T16:23:52.277Z,285
2016-04-27T16:24:54.186Z,905
2016-04-27T16:25:52.533Z,260
2016-04-27T16:26:52.599Z,565
2016-04-27T16:27:52.663Z,220
2016-04-27T16:28:51.901Z,240
2016-04-27T16:29:52.731Z,240
2016-04-27T16:30:53.999Z,225
2016-04-27T16:31:52.862Z,730
2016-04-27T16:32:52.848Z,765
2016-04-27T16:33:53.148Z,770
2016-04-27T16:34:53.339Z,740
2016-04-27T16:35:52.967Z,390
2016-04-27T16:36:53.015Z,270
2016-04-27T16:37:53.065Z,300
2016-04-27T16:38:53.162Z,500
2016-04-27T16:39:54.555Z,425
2016-04-27T16:40:53.167Z,640
2016-04-27T16:41:53.248Z,595
2016-04-27T16:42:55.625Z,575
2016-04-27T16:43:54.222Z,550
2016-04-27T16:44:53.381Z,630
2016-04-27T16:45:53.446Z,560
2016-04-27T16:46:53.434Z,605
2016-04-27T16:47:53.499Z,505
2016-04-27T16:48:53.533Z,470
2016-04-27T16:49:54.738Z,220
2016-04-27T16:50:53.928Z,190
2016-04-27T16:51:53.634Z,225
2016-04-27T16:52:53.762Z,220
2016-04-27T16:53:56.655Z,175
2016-04-27T16:54:54.939Z,195
2016-04-27T16:55:54.723Z,155
2016-04-27T16:56:54.023Z,130
2016-04-27T16:57:54.072Z,175
2016-04-27T16:58:54.809Z,180
2016-04-27T16:59:53.296Z,130
2016-04-27T17:00:54.126Z,130
2016-04-27T17:01:54.412Z,150
2016-04-27T17:02:54.507Z,150
2016-04-27T17:03:54.338Z,130
2016-04-27T17:04:54.497Z,130
2016-04-27T17:05:54.281Z,120
2016-04-27T17:06:54.581Z,115
2016-04-27T17:07:53.552Z,135
2016-04-27T17:08:54.367Z,160
2016-04-27T17:09:54.448Z,120
2016-04-27T17:10:54.388Z,150
2016-04-27T17:11:54.595Z,175
2016-04-27T17:12:54.722Z,130
2016-04-27T17:13:54.756Z,125
2016-04-27T17:14:54.743Z,125
2016-04-27T17:15:54.792Z,130
2016-04-27T17:16:54.717Z,135
2016-04-27T17:17:54.705Z,140
2016-04-27T17:18:54.785Z,140
2016-04-27T17:19:54.850Z,140
2016-04-27T17:20:54.837Z,135
2016-04-27T17:21:54.949Z,130
2016-04-27T17:22:54.889Z,120
2016-04-27T17:23:54.641Z,115
2016-04-27T17:24:57.426Z,110
2016-04-27T17:25:55.054Z,100
2016-04-27T17:26:55.041Z,90
2016-04-27T17:27:55.074Z,85
2016-04-27T17:28:55.187Z,80
2016-04-27T17:29:55.174Z,80
2016-04-27T17:30:55.192Z,80
2016-04-27T17:31:56.460Z,85
2016-04-27T17:32:54.745Z,90
2016-04-27T17:33:55.951Z,90
2016-04-27T17:34:55.984Z,90
2016-04-27T17:35:55.815Z,90
2016-04-27T17:36:55.646Z,90
2016-04-27T17:37:55.962Z,90
2016-04-27T17:38:56.136Z,85
2016-04-27T17:39:56.592Z,85
2016-04-27T17:40:55.812Z,80
2016-04-27T17:41:55.612Z,75
2016-04-27T17:42:55.912Z,70
2016-04-27T17:43:55.837Z,70
2016-04-27T17:44:55.902Z,65
2016-04-27T17:45:56.389Z,60
2016-04-27T17:47:02.735Z,55
2016-04-27T17:47:55.878Z,60
2016-04-27T17:48:55.897Z,55
2016-04-27T17:49:55.916Z,50
2016-04-27T17:50:56.028Z,45
2016-04-27T17:51:56.546Z,40
2016-04-27T17:52:56.705Z,40
2016-04-27T17:53:56.676Z,35
2016-04-27T17:54:58.319Z,35
2016-04-27T17:55:56.947Z,30
2016-04-27T17:56:56.918Z,30
2016-04-27T17:57:56.780Z,25